AirNav   ATP
 
 417 users online  

CL35 Warner Springs Gliderport
Warner Springs, California, USA

GOING TO WARNER SPRINGS?


FAA INFORMATION EFFECTIVE 11 OCTOBER 2018

Location

FAA Identifier: CL35
Lat/Long: 33-17-04.2100N / 116-40-10.7650W
33-17.070167N / 116-40.179417W
33.2845028 / -116.6696569
(estimated)
Elevation: 2880 ft. / 878 m (estimated)
Variation: 13E (1985)
From city: 2 miles E of WARNER SPRINGS, CA
Time zone: UTC -7 (UTC -8 during Standard Time)
Zip code: 92086

Gliderport Operations

Gliderport use: Private use. Permission required prior to landing
Activation date: 10/1984
Control tower: no
ARTCC: LOS ANGELES CENTER
FSS: SAN DIEGO FLIGHT SERVICE STATION
Attendance: 0900-1700
Wind indicator: yes
Segmented circle: yes
Landing fee: yes

Gliderport Communications

UNICOM: 122.8
WX AWOS-3P at L08 (18 nm E): 126.575 (760-767-3308)
WX ASOS at RNM (19 nm SW): 132.025 (760-789-0736)

Nearby radio navigation aids

VOR radial/distance  VOR name  Freq  Var
JLIr319/9.6JULIAN VORTAC114.0015E
TRMr218/32.8THERMAL VORTAC116.2013E
PSPr186/37.1PALM SPRINGS VORTAC115.5013E
OCNr071/37.6OCEANSIDE VORTAC115.3015E
HDFr125/(39.2)HOMELAND VOR113.4014E

Gliderport Services

Runway Information

Runway 8/26

Dimensions: 3500 x 70 ft. / 1067 x 21 m
Surface: asphalt
RUNWAY 8  RUNWAY 26
Latitude: 33-17.060333N33-17.080000N
Longitude: 116-40.522667W116-39.836167W
Elevation: 2873.0 ft.2914.0 ft.
Traffic pattern: leftleft
Obstructions: none200 ft. hill, 5200 ft. from runway

Gliderport Ownership and Management from official FAA records

Ownership: Privately-owned
Owner: WARNER SPRINGS RANCH RESORT, LLC
31930 HWY 79
WARNER SPRINGS, CA 92086
Phone 760-782-4200
SKY SAILING 31930 HWY 79.
Manager: BRET WILLAT
SKY SAILING 31930 HWY 79
WARNER SPRINGS, CA 92086
Phone 760-782-0404
LEASEE.

Gliderport Operational Statistics

Aircraft based on the field: 80
Single engine airplanes: 10
Gliders airplanes: 70
    

Instrument Procedures

There are no published instrument procedures at CL35.

Some nearby airports with instrument procedures:

L08 - Borrego Valley Airport (18 nm E)
KRNM - Ramona Airport (19 nm SW)
F70 - French Valley Airport (29 nm NW)
L18 - Fallbrook Community Airpark (29 nm W)
KSEE - Gillespie Field Airport (31 nm SW)
 
Loc | Ops | Rwys | IFR | FBO | Links
Com | Nav | Svcs | Stats | Notes


 
Area around CL35 (Warner Springs Gliderport)
 
Road maps at: MapQuest Bing Google
 
Aerial photo
WARNING: Photo may not be current or correct
Aerial photo of CL35 (Warner Springs Gliderport)
Photo by Steve Lupinacci
Photo taken 27-May-2008

Do you have a better or more recent aerial photo of Warner Springs Gliderport that you would like to share? If so, please send us your photo.

 
Sectional chart

 
Airport distance calculator
Flying to Warner Springs Gliderport? Find the distance to fly.

From to CL35

Sunrise and sunset
Times for 15-Oct-2018
 Local
(UTC-7)
 Zulu
(UTC)
Morning civil twilight06:2713:27
Sunrise06:5213:52
Sunset18:1301:13
Evening civil twilight18:3801:38

Current date and time
Zulu (UTC)  15-Oct-2018 09:40:09
Local (UTC-7)  15-Oct-2018 02:40:09
 
METAR
KL08 
18nm E 
150915Z AUTO 21004KT 10SM FEW095 BKN120 19/04 A3000 RMK AO2
KRNM 
20nm SW 
150909Z AUTO 00000KT 1/2SM FG VV004 11/11 A3001 RMK AO2 T01110106
KF70 
29nm NW 
150915Z AUTO 01003KT 7SM BKN110 15/13 A3003 RMK AO1
KL18 
29nm W 
150915Z AUTO 00000KT 10SM BKN110 15/14 A3001 RMK AO2
KSEE 
32nm SW 
150915Z AUTO 00000KT 10SM CLR 15/14 A3000 RMK AO2
KCRQ 
32nm W 
150853Z AUTO 00000KT 10SM SCT120 16/14 A2999 RMK AO2 SLP151 T01610144 53005
KTRM 
33nm NE 
150852Z AUTO 03005KT 10SM CLR 23/M02 A3001 RMK AO2 SLP163 T02281022 51023
KPSP 
33nm N 
150853Z AUTO 29009KT 10SM CLR 23/M07 A3006 RMK AO2 SLP178 T02331067 53021
KNFG 
33nm W 
150855Z AUTO 06003KT 10SM BKN085 BKN120 14/14 A3000 RMK AO2 SLP156 T01390139 53006 $
KNKX 
34nm SW 
150855Z 06004KT 10SM FEW085 FEW120 16/13 A3000 RMK AO2 SLP152 T01610128 53005
TAF
KCRQ 
32nm W 
150525Z 1506/1606 VRB04KT P6SM SKC FM151000 03003KT P6SM FEW020 WS010/02025KT FM151800 33009KT P6SM SKC FM160000 36005KT P6SM SKC
KTRM 
33nm NE 
150525Z 1506/1606 32010KT P6SM BKN100 FM151600 32015G25KT P6SM SKC FM160000 34010KT P6SM SKC
KPSP 
33nm N 
150525Z 1506/1606 32008KT P6SM BKN100 FM151100 33020G30KT P6SM SKC TEMPO 1515/1519 5SM BLDU FM160000 01010KT P6SM SKC FM160400 32008KT P6SM SKC
KNFG 
33nm W 
1503/1603 VRB06KT 9999 SKC QNH2991INS BECMG 1515/1517 05012G22KT 9999 FEW070 QNH2997INS BECMG 1601/1603 VRB06KT 9999 SKC QNH2997INS AUTOMATED SENSOR METWATCH 1503 TIL 1515 T12/1513Z T27/1521Z
KNKX 
34nm SW 
1503/1603 VRB06KT 9999 FEW030 QNH2992INS BECMG 1513/1515 35012KT 9999 FEW070 QNH2998INS TEMPO 1519/1601 35012G22KT T15/1513Z T27/1521Z
NOTAMs
Click for the latest NOTAMs
NOTAMs are issued by the DoD/FAA and will open in a separate window not controlled by AirNav.

 

 
 

Would you like to see your business listed on this page?

 If your business provides an interesting product or service to pilots, flight crews, aircraft, or users of the Warner Springs Gliderport, you should consider listing it here.  To start the listing process, click on the button below
 
Add a business
 

Other Pages about Warner Springs Gliderport

www.agcsc.org/warner_springs_info.html
 
Update a link
 
Copyright © AirNav, LLC. All rights reserved. Privacy Policy  Contact